createdAt,value
2018-08-28T00:00:49.373Z,17.30
2018-08-28T00:03:17.918Z,17.20
2018-08-28T00:05:46.428Z,17.20
2018-08-28T00:08:14.936Z,17.10
2018-08-28T00:10:43.400Z,17.00
2018-08-28T00:13:12.089Z,16.80
2018-08-28T00:15:40.681Z,16.70
2018-08-28T00:18:09.225Z,16.60
2018-08-28T00:20:37.796Z,16.50
2018-08-28T00:23:06.458Z,16.40
2018-08-28T00:25:35.066Z,16.30
2018-08-28T00:28:03.648Z,16.30
2018-08-28T00:30:32.111Z,16.20
2018-08-28T00:33:00.681Z,16.10
2018-08-28T00:35:29.142Z,16.10
2018-08-28T00:37:57.655Z,16.10
2018-08-28T00:40:26.120Z,16.00
2018-08-28T00:42:54.833Z,16.00
2018-08-28T00:45:23.602Z,15.90
2018-08-28T00:47:52.134Z,15.90
2018-08-28T00:50:20.784Z,15.90
2018-08-28T00:52:49.327Z,15.90
2018-08-28T00:55:17.832Z,15.90
2018-08-28T00:57:46.369Z,15.80
2018-08-28T01:00:14.891Z,15.80
2018-08-28T01:02:43.348Z,15.80
2018-08-28T01:05:11.872Z,15.70
2018-08-28T01:07:40.969Z,15.70
2018-08-28T01:10:09.807Z,15.60
2018-08-28T01:12:38.320Z,15.60
2018-08-28T01:15:07.429Z,15.50
2018-08-28T01:17:35.885Z,15.50
2018-08-28T01:20:05.047Z,15.40
2018-08-28T01:22:33.568Z,15.30
2018-08-28T01:25:02.011Z,15.30
2018-08-28T01:27:30.496Z,15.20
2018-08-28T01:29:58.929Z,15.20
2018-08-28T01:32:27.394Z,15.10
2018-08-28T01:34:55.847Z,15.00
2018-08-28T01:37:24.413Z,15.00
2018-08-28T01:39:53.083Z,15.00
2018-08-28T01:42:23.883Z,14.90
2018-08-28T01:44:52.499Z,14.90
2018-08-28T01:47:21.498Z,14.80
2018-08-28T01:49:50.523Z,14.80
2018-08-28T01:52:19.858Z,14.70
2018-08-28T01:54:48.367Z,14.70
2018-08-28T01:57:16.854Z,14.70
2018-08-28T01:59:45.664Z,14.70
2018-08-28T02:02:14.146Z,14.60
2018-08-28T02:04:42.749Z,14.60
2018-08-28T02:07:11.197Z,14.60
2018-08-28T02:09:39.737Z,14.60
2018-08-28T02:12:08.419Z,14.50
2018-08-28T02:14:37.044Z,14.50
2018-08-28T02:17:05.539Z,14.40
2018-08-28T02:19:33.996Z,14.40
2018-08-28T02:22:02.489Z,14.30
2018-08-28T02:24:30.996Z,14.30
2018-08-28T02:26:59.481Z,14.30
2018-08-28T02:29:28.001Z,14.20
2018-08-28T02:31:56.463Z,14.20
2018-08-28T02:34:25.133Z,14.20
2018-08-28T02:36:53.604Z,14.10
2018-08-28T02:39:22.069Z,14.10
2018-08-28T02:41:50.505Z,14.10
2018-08-28T02:44:19.019Z,14.00
2018-08-28T02:46:47.758Z,14.00
2018-08-28T02:49:17.035Z,13.90
2018-08-28T02:51:45.988Z,13.90
2018-08-28T02:54:14.572Z,13.80
2018-08-28T02:56:43.173Z,13.80
2018-08-28T02:59:12.257Z,13.70
2018-08-28T03:01:40.981Z,13.60
2018-08-28T03:04:09.957Z,13.60
2018-08-28T03:06:39.206Z,13.50
2018-08-28T03:09:08.051Z,13.50
2018-08-28T03:11:36.951Z,13.40
2018-08-28T03:14:05.583Z,13.40
2018-08-28T03:16:34.324Z,13.30
2018-08-28T03:19:03.479Z,13.30
2018-08-28T03:21:32.367Z,13.20
2018-08-28T03:24:01.244Z,13.20
2018-08-28T03:26:30.081Z,13.10
2018-08-28T03:28:58.788Z,13.10
2018-08-28T03:31:27.751Z,13.00
2018-08-28T03:33:56.748Z,13.00
2018-08-28T03:36:25.753Z,13.00
2018-08-28T03:38:54.499Z,12.90
2018-08-28T03:41:23.256Z,12.90
2018-08-28T03:43:52.112Z,12.90
2018-08-28T03:46:20.905Z,12.80
2018-08-28T03:48:49.479Z,12.80
2018-08-28T03:51:18.276Z,12.80
2018-08-28T03:53:46.805Z,12.70
2018-08-28T03:56:15.396Z,12.70
2018-08-28T03:58:44.317Z,12.70
2018-08-28T04:01:12.821Z,12.70
2018-08-28T04:03:41.616Z,12.70
2018-08-28T04:06:10.232Z,12.60
2018-08-28T04:08:38.915Z,12.60
2018-08-28T04:11:07.555Z,12.60
2018-08-28T04:13:35.982Z,12.50
2018-08-28T04:16:04.528Z,12.50
2018-08-28T04:18:33.430Z,12.50
2018-08-28T04:21:02.546Z,12.50
2018-08-28T04:23:31.265Z,12.40
2018-08-28T04:25:59.741Z,12.40
2018-08-28T04:28:28.410Z,12.40
2018-08-28T04:30:57.285Z,12.40
2018-08-28T04:33:25.604Z,12.40
2018-08-28T04:35:54.073Z,12.40
2018-08-28T04:38:22.840Z,12.40
2018-08-28T04:40:51.309Z,12.30
2018-08-28T04:43:19.795Z,12.30
2018-08-28T04:45:48.321Z,12.30
2018-08-28T04:48:17.036Z,12.30
2018-08-28T04:50:45.812Z,12.30
2018-08-28T04:53:14.627Z,12.40
2018-08-28T04:55:43.340Z,12.40
2018-08-28T04:58:11.763Z,12.40
2018-08-28T05:00:40.797Z,12.40
2018-08-28T05:03:09.188Z,12.50
2018-08-28T05:05:38.024Z,12.50
2018-08-28T05:08:06.684Z,12.50
2018-08-28T05:10:35.184Z,12.60
2018-08-28T05:13:03.669Z,12.60
2018-08-28T05:15:32.335Z,12.70
2018-08-28T05:18:01.309Z,12.80
2018-08-28T05:20:29.999Z,12.90
2018-08-28T05:22:58.632Z,13.00
2018-08-28T05:25:27.493Z,13.10
2018-08-28T05:27:56.267Z,13.20
2018-08-28T05:30:25.261Z,13.40
2018-08-28T05:32:53.921Z,13.50
2018-08-28T05:35:22.599Z,13.60
2018-08-28T05:37:51.484Z,13.70
2018-08-28T05:40:20.238Z,13.90
2018-08-28T05:42:49.076Z,14.00
2018-08-28T05:45:18.285Z,14.10
2018-08-28T05:47:47.037Z,14.30
2018-08-28T05:50:15.936Z,14.40
2018-08-28T05:52:45.173Z,14.60
2018-08-28T05:55:16.803Z,14.70
2018-08-28T05:57:45.843Z,14.80
2018-08-28T06:00:14.754Z,15.10
2018-08-28T06:02:43.384Z,15.30
2018-08-28T06:05:12.283Z,15.60
2018-08-28T06:07:40.818Z,16.00
2018-08-28T06:10:09.673Z,16.60
2018-08-28T06:12:38.266Z,17.30
2018-08-28T06:15:07.451Z,18.20
2018-08-28T06:17:36.063Z,19.10
2018-08-28T06:20:05.100Z,19.90
2018-08-28T06:22:33.933Z,20.80
2018-08-28T06:25:02.709Z,21.50
2018-08-28T06:27:31.304Z,22.10
2018-08-28T06:29:59.973Z,22.80
2018-08-28T06:32:28.599Z,23.40
2018-08-28T06:34:57.254Z,24.00
2018-08-28T06:37:25.885Z,24.40
2018-08-28T06:39:54.328Z,24.80
2018-08-28T06:42:22.925Z,25.00
2018-08-28T06:44:51.685Z,25.10
2018-08-28T06:47:20.860Z,25.30
2018-08-28T06:49:49.509Z,25.50
2018-08-28T06:52:18.421Z,25.60
2018-08-28T06:54:47.185Z,25.80
2018-08-28T06:57:15.920Z,26.00
2018-08-28T06:59:45.283Z,26.30
2018-08-28T07:02:14.751Z,26.70
2018-08-28T07:04:43.851Z,27.10
2018-08-28T07:07:12.844Z,27.40
2018-08-28T07:09:42.070Z,27.70
2018-08-28T07:12:11.233Z,28.00
2018-08-28T07:14:40.105Z,28.40
2018-08-28T07:17:08.962Z,28.70
2018-08-28T07:19:37.965Z,28.90
2018-08-28T07:22:07.309Z,29.20
2018-08-28T07:24:36.419Z,29.50
2018-08-28T07:27:07.217Z,29.80
2018-08-28T07:29:37.153Z,30.10
2018-08-28T07:32:06.338Z,30.40
2018-08-28T07:34:34.975Z,30.70
2018-08-28T07:37:03.493Z,30.70
2018-08-28T07:39:32.158Z,30.80
2018-08-28T07:42:00.636Z,30.90
2018-08-28T07:44:29.936Z,30.90
2018-08-28T07:46:58.861Z,31.40
2018-08-28T07:49:27.296Z,31.90
2018-08-28T07:51:55.829Z,32.20
2018-08-28T07:54:24.498Z,32.30
2018-08-28T07:56:53.088Z,32.60
2018-08-28T07:59:21.539Z,32.70
2018-08-28T08:01:50.033Z,32.90
2018-08-28T08:04:18.610Z,33.50
2018-08-28T08:06:47.057Z,33.70
2018-08-28T08:09:15.565Z,33.60
2018-08-28T08:11:44.017Z,33.70
2018-08-28T08:14:12.538Z,33.80
2018-08-28T08:16:41.207Z,34.00
2018-08-28T08:19:09.696Z,34.10
2018-08-28T08:21:38.174Z,34.00
2018-08-28T08:24:06.892Z,33.80
2018-08-28T08:26:35.410Z,33.60
2018-08-28T08:29:03.865Z,33.50
2018-08-28T08:31:32.295Z,33.60
2018-08-28T08:34:00.745Z,33.90
2018-08-28T08:36:29.178Z,34.20
2018-08-28T08:38:57.647Z,34.30
2018-08-28T08:41:26.111Z,34.80
2018-08-28T08:43:54.565Z,35.40
2018-08-28T08:46:23.077Z,36.00
2018-08-28T08:48:51.537Z,36.20
2018-08-28T08:51:20.067Z,35.90
2018-08-28T08:53:48.837Z,35.10
2018-08-28T08:56:17.325Z,34.60
2018-08-28T08:58:45.937Z,34.10
2018-08-28T09:01:14.422Z,33.90
2018-08-28T09:03:42.943Z,33.30
2018-08-28T09:06:11.548Z,32.60
2018-08-28T09:08:40.295Z,32.30
2018-08-28T09:11:09.402Z,32.50
2018-08-28T09:13:37.836Z,32.90
2018-08-28T09:16:06.334Z,33.20
2018-08-28T09:18:34.830Z,33.40
2018-08-28T09:21:03.273Z,32.80
2018-08-28T09:23:31.786Z,32.00
2018-08-28T09:26:00.297Z,31.30
2018-08-28T09:28:28.788Z,31.10
2018-08-28T09:30:57.310Z,31.20
2018-08-28T09:33:25.873Z,30.90
2018-08-28T09:35:54.316Z,31.10
2018-08-28T09:38:22.861Z,31.60
2018-08-28T09:40:51.312Z,32.30
2018-08-28T09:43:19.966Z,32.90
2018-08-28T09:45:48.674Z,33.30
2018-08-28T09:48:19.037Z,33.20
2018-08-28T09:50:47.607Z,33.10
2018-08-28T09:53:16.004Z,32.90
2018-08-28T09:55:44.483Z,32.40
2018-08-28T09:58:12.944Z,32.40
2018-08-28T10:00:46.900Z,32.50
2018-08-28T10:03:15.473Z,31.80
2018-08-28T10:05:43.930Z,31.60
2018-08-28T10:08:12.392Z,32.00
2018-08-28T10:10:40.970Z,33.10
2018-08-28T10:13:09.447Z,33.90
2018-08-28T10:15:37.930Z,33.60
2018-08-28T10:18:06.818Z,33.30
2018-08-28T10:20:35.841Z,33.30
2018-08-28T10:23:04.593Z,32.90
2018-08-28T10:25:33.291Z,32.70
2018-08-28T10:28:02.514Z,32.70
2018-08-28T10:30:37.815Z,32.30
2018-08-28T10:33:06.849Z,31.70
2018-08-28T10:35:35.597Z,31.10
2018-08-28T10:38:04.440Z,31.30
2018-08-28T10:40:33.389Z,31.30
2018-08-28T10:43:02.476Z,31.20
2018-08-28T10:45:31.002Z,31.20
2018-08-28T10:47:59.505Z,31.10
2018-08-28T10:50:27.973Z,31.00
2018-08-28T10:52:56.538Z,30.30
2018-08-28T10:55:24.930Z,29.70
2018-08-28T10:57:53.432Z,28.80
2018-08-28T11:00:22.074Z,28.80
2018-08-28T11:02:50.537Z,28.50
2018-08-28T11:05:19.000Z,28.30
2018-08-28T11:07:47.597Z,27.90
2018-08-28T11:10:16.368Z,28.10
2018-08-28T11:12:44.909Z,28.50
2018-08-28T11:15:13.421Z,29.00
2018-08-28T11:17:42.017Z,28.80
2018-08-28T11:20:10.923Z,28.70
2018-08-28T11:22:39.664Z,28.50
2018-08-28T11:25:08.586Z,28.20
2018-08-28T11:27:37.159Z,28.20
2018-08-28T11:30:05.725Z,28.10
2018-08-28T11:32:34.241Z,27.80
2018-08-28T11:35:02.881Z,27.50
2018-08-28T11:37:31.571Z,27.50
2018-08-28T11:40:00.076Z,27.60
2018-08-28T11:42:28.671Z,27.60
2018-08-28T11:44:57.194Z,27.70
2018-08-28T11:47:25.986Z,27.70
2018-08-28T11:49:55.009Z,27.60
2018-08-28T11:52:23.498Z,27.60
2018-08-28T11:54:51.954Z,27.80
2018-08-28T11:57:20.446Z,28.10
2018-08-28T11:59:49.097Z,28.30
2018-08-28T12:02:17.631Z,28.60
2018-08-28T12:04:46.291Z,28.60
2018-08-28T12:07:14.908Z,28.60
2018-08-28T12:09:43.621Z,28.50
2018-08-28T12:12:12.190Z,28.50
2018-08-28T12:14:40.916Z,28.50
2018-08-28T12:17:09.656Z,28.40
2018-08-28T12:19:38.346Z,28.30
2018-08-28T12:22:06.852Z,28.30
2018-08-28T12:24:35.340Z,28.10
2018-08-28T12:27:03.824Z,27.90
2018-08-28T12:29:32.589Z,27.70
2018-08-28T12:32:01.065Z,27.40
2018-08-28T12:34:29.691Z,27.20
2018-08-28T12:36:58.300Z,27.30
2018-08-28T12:39:26.998Z,27.30
2018-08-28T12:41:55.649Z,27.20
2018-08-28T12:44:24.207Z,27.10
2018-08-28T12:46:52.752Z,27.00
2018-08-28T12:49:21.188Z,26.80
2018-08-28T12:51:49.618Z,26.80
2018-08-28T12:54:18.158Z,26.80
2018-08-28T12:56:46.657Z,26.70
2018-08-28T12:59:15.261Z,26.80
2018-08-28T13:01:43.787Z,26.50
2018-08-28T13:04:12.277Z,26.30
2018-08-28T13:06:40.734Z,26.10
2018-08-28T13:09:09.224Z,25.90
2018-08-28T13:11:37.657Z,25.70
2018-08-28T13:14:06.549Z,25.70
2018-08-28T13:16:35.356Z,25.40
2018-08-28T13:19:04.136Z,25.20
2018-08-28T13:21:32.815Z,25.10
2018-08-28T13:24:01.317Z,25.10
2018-08-28T13:26:30.365Z,25.20
2018-08-28T13:28:58.836Z,25.40
2018-08-28T13:31:27.310Z,25.40
2018-08-28T13:33:55.876Z,25.40
2018-08-28T13:36:24.380Z,25.40
2018-08-28T13:38:52.927Z,25.40
2018-08-28T13:41:21.412Z,25.50
2018-08-28T13:43:49.852Z,25.50
2018-08-28T13:46:18.405Z,25.60
2018-08-28T13:48:47.014Z,25.50
2018-08-28T13:51:16.208Z,25.40
2018-08-28T13:53:45.420Z,25.30
2018-08-28T13:56:13.715Z,25.30
2018-08-28T13:58:42.241Z,25.30
2018-08-28T14:01:10.715Z,25.40
2018-08-28T14:03:39.218Z,25.40
2018-08-28T14:06:07.723Z,25.60
2018-08-28T14:08:36.198Z,25.70
2018-08-28T14:11:07.601Z,25.70
2018-08-28T14:13:36.082Z,25.60
2018-08-28T14:16:04.838Z,25.40
2018-08-28T14:18:33.358Z,25.30
2018-08-28T14:21:01.849Z,25.40
2018-08-28T14:23:30.519Z,25.30
2018-08-28T14:25:59.025Z,25.20
2018-08-28T14:28:28.168Z,25.20
2018-08-28T14:30:56.925Z,25.20
2018-08-28T14:33:25.540Z,25.20
2018-08-28T14:35:54.071Z,25.30
2018-08-28T14:38:22.620Z,25.20
2018-08-28T14:40:51.139Z,25.20
2018-08-28T14:43:19.626Z,25.20
2018-08-28T14:45:48.058Z,25.20
2018-08-28T14:48:16.553Z,25.30
2018-08-28T14:50:45.032Z,25.40
2018-08-28T14:53:13.787Z,25.30
2018-08-28T14:55:42.273Z,25.20
2018-08-28T14:58:10.935Z,25.30
2018-08-28T15:00:40.246Z,25.30
2018-08-28T15:03:08.760Z,25.30
2018-08-28T15:05:37.269Z,25.30
2018-08-28T15:08:05.854Z,25.40
2018-08-28T15:10:34.385Z,25.40
2018-08-28T15:13:02.817Z,25.40
2018-08-28T15:15:31.316Z,25.40
2018-08-28T15:17:59.807Z,25.30
2018-08-28T15:20:28.438Z,25.30
2018-08-28T15:22:56.903Z,25.20
2018-08-28T15:25:25.710Z,25.20
2018-08-28T15:27:54.162Z,25.30
2018-08-28T15:30:22.647Z,25.40
2018-08-28T15:32:51.152Z,25.40
2018-08-28T15:35:19.662Z,25.40
2018-08-28T15:37:48.101Z,25.40
2018-08-28T15:40:16.627Z,25.30
2018-08-28T15:42:45.104Z,25.20
2018-08-28T15:45:13.592Z,25.20
2018-08-28T15:47:42.072Z,25.00
2018-08-28T15:50:11.345Z,25.00
2018-08-28T15:52:39.823Z,25.00
2018-08-28T15:55:08.498Z,25.00
2018-08-28T15:57:37.330Z,25.00
2018-08-28T16:00:07.140Z,25.00
2018-08-28T16:02:35.855Z,25.00
2018-08-28T16:05:04.337Z,25.00
2018-08-28T16:07:32.874Z,25.00
2018-08-28T16:10:01.637Z,25.00
2018-08-28T16:12:30.188Z,25.00
2018-08-28T16:14:58.745Z,24.90
2018-08-28T16:17:27.232Z,24.90
2018-08-28T16:19:55.753Z,24.80
2018-08-28T16:22:31.740Z,24.80
2018-08-28T16:25:00.184Z,24.70
2018-08-28T16:27:28.638Z,24.60
2018-08-28T16:29:57.130Z,24.50
2018-08-28T16:32:25.681Z,24.50
2018-08-28T16:34:54.219Z,24.40
2018-08-28T16:37:22.717Z,24.50
2018-08-28T16:39:51.299Z,24.40
2018-08-28T16:42:19.798Z,24.50
2018-08-28T16:44:48.334Z,24.40
2018-08-28T16:47:16.791Z,24.40
2018-08-28T16:49:45.313Z,24.40
2018-08-28T16:52:13.834Z,24.40
2018-08-28T16:54:42.339Z,24.30
2018-08-28T16:57:10.833Z,24.40
2018-08-28T16:59:39.362Z,24.40
2018-08-28T17:02:07.861Z,24.40
2018-08-28T17:04:36.342Z,24.40
2018-08-28T17:07:05.063Z,24.40
2018-08-28T17:09:33.545Z,24.40
2018-08-28T17:12:02.092Z,24.40
2018-08-28T17:14:30.739Z,24.30
2018-08-28T17:16:59.229Z,24.30
2018-08-28T17:19:27.874Z,24.20
2018-08-28T17:21:56.423Z,24.20
2018-08-28T17:24:24.985Z,24.10
2018-08-28T17:26:53.488Z,24.00
2018-08-28T17:29:22.019Z,23.90
2018-08-28T17:31:50.958Z,23.90
2018-08-28T17:34:19.641Z,23.80
2018-08-28T17:36:48.238Z,23.70
2018-08-28T17:39:16.797Z,23.70
2018-08-28T17:41:45.239Z,23.60
2018-08-28T17:44:13.929Z,23.50
2018-08-28T17:46:42.442Z,23.50
2018-08-28T17:49:10.949Z,23.40
2018-08-28T17:51:39.482Z,23.30
2018-08-28T17:54:08.101Z,23.20
2018-08-28T17:56:36.781Z,23.10
2018-08-28T17:59:05.265Z,23.10
2018-08-28T18:01:33.846Z,22.90
2018-08-28T18:04:02.300Z,22.80
2018-08-28T18:06:30.814Z,22.70
2018-08-28T18:08:59.304Z,22.60
2018-08-28T18:11:27.951Z,22.50
2018-08-28T18:13:56.427Z,22.40
2018-08-28T18:16:25.023Z,22.30
2018-08-28T18:18:53.465Z,22.20
2018-08-28T18:21:21.950Z,22.10
2018-08-28T18:23:50.585Z,22.00
2018-08-28T18:26:19.109Z,21.90
2018-08-28T18:28:48.250Z,21.80
2018-08-28T18:31:16.727Z,21.70
2018-08-28T18:33:45.255Z,21.60
2018-08-28T18:36:13.836Z,21.50
2018-08-28T18:38:43.315Z,21.40
2018-08-28T18:41:11.932Z,21.30
2018-08-28T18:43:40.345Z,21.20
2018-08-28T18:46:08.915Z,21.10
2018-08-28T18:48:37.480Z,21.00
2018-08-28T18:51:06.102Z,20.90
2018-08-28T18:53:34.923Z,20.80
2018-08-28T18:56:03.471Z,20.70
2018-08-28T18:58:32.221Z,20.60
2018-08-28T19:01:00.727Z,20.50
2018-08-28T19:03:29.289Z,20.40
2018-08-28T19:05:57.809Z,20.30
2018-08-28T19:08:26.420Z,20.30
2018-08-28T19:10:55.025Z,20.20
2018-08-28T19:13:23.512Z,20.10
2018-08-28T19:15:52.345Z,20.00
2018-08-28T19:18:20.922Z,19.90
2018-08-28T19:20:49.499Z,19.80
2018-08-28T19:23:18.028Z,19.70
2018-08-28T19:25:46.549Z,19.70
2018-08-28T19:28:15.026Z,19.60
2018-08-28T19:30:43.531Z,19.60
2018-08-28T19:33:13.312Z,19.50
2018-08-28T19:35:41.758Z,19.40
2018-08-28T19:38:10.265Z,19.40
2018-08-28T19:40:38.781Z,19.30
2018-08-28T19:43:07.300Z,19.20
2018-08-28T19:45:35.898Z,19.20
2018-08-28T19:48:04.627Z,19.10
2018-08-28T19:50:33.169Z,19.10
2018-08-28T19:53:01.653Z,19.10
2018-08-28T19:55:30.278Z,19.00
2018-08-28T19:57:58.817Z,18.90
2018-08-28T20:00:27.682Z,18.90
2018-08-28T20:02:56.197Z,18.80
2018-08-28T20:05:24.705Z,18.70
2018-08-28T20:07:53.260Z,18.70
2018-08-28T20:10:21.843Z,18.70
2018-08-28T20:12:50.341Z,18.60
2018-08-28T20:15:18.916Z,18.50
2018-08-28T20:17:47.388Z,18.50
2018-08-28T20:20:15.930Z,18.40
2018-08-28T20:22:44.464Z,18.40
2018-08-28T20:25:12.944Z,18.30
2018-08-28T20:27:41.605Z,18.20
2018-08-28T20:30:10.426Z,18.20
2018-08-28T20:32:38.929Z,18.10
2018-08-28T20:35:07.830Z,18.10
2018-08-28T20:37:36.527Z,18.00
2018-08-28T20:40:05.160Z,17.90
2018-08-28T20:42:33.641Z,17.90
2018-08-28T20:45:02.076Z,17.80
2018-08-28T20:47:30.643Z,17.80
2018-08-28T20:49:59.131Z,17.70
2018-08-28T20:52:27.889Z,17.70
2018-08-28T20:54:56.498Z,17.70
2018-08-28T20:57:25.004Z,17.70
2018-08-28T20:59:53.493Z,17.60
2018-08-28T21:02:22.011Z,17.50
2018-08-28T21:04:50.569Z,17.50
2018-08-28T21:07:19.335Z,17.50
2018-08-28T21:09:47.823Z,17.40
2018-08-28T21:12:16.305Z,17.30
2018-08-28T21:14:44.916Z,17.30
2018-08-28T21:17:13.410Z,17.30
2018-08-28T21:19:41.865Z,17.20
2018-08-28T21:22:10.488Z,17.20
2018-08-28T21:24:39.003Z,17.20
2018-08-28T21:27:07.478Z,17.10
2018-08-28T21:29:35.968Z,17.10
2018-08-28T21:32:04.577Z,17.10
2018-08-28T21:34:33.063Z,17.10
2018-08-28T21:37:01.532Z,17.00
2018-08-28T21:39:30.104Z,17.00
2018-08-28T21:41:58.986Z,17.00
2018-08-28T21:44:27.475Z,17.00
2018-08-28T21:46:56.202Z,17.00
2018-08-28T21:49:24.744Z,17.00
2018-08-28T21:51:53.249Z,17.00
2018-08-28T21:54:21.707Z,17.00
2018-08-28T21:56:50.235Z,16.90
2018-08-28T21:59:18.692Z,16.90
2018-08-28T22:01:47.380Z,16.90
2018-08-28T22:04:15.893Z,16.80
2018-08-28T22:06:49.818Z,16.80
2018-08-28T22:09:18.252Z,16.80
2018-08-28T22:11:46.948Z,16.70
2018-08-28T22:14:15.456Z,16.70
2018-08-28T22:16:43.934Z,16.70
2018-08-28T22:19:12.503Z,16.60
2018-08-28T22:21:40.938Z,16.60
2018-08-28T22:24:09.490Z,16.60
2018-08-28T22:26:37.982Z,16.50
2018-08-28T22:29:06.409Z,16.50
2018-08-28T22:31:35.326Z,16.50
2018-08-28T22:34:03.899Z,16.50
2018-08-28T22:36:32.533Z,16.50
2018-08-28T22:39:01.089Z,16.40
2018-08-28T22:41:29.644Z,16.40
2018-08-28T22:43:58.128Z,16.40
2018-08-28T22:46:26.809Z,16.30
2018-08-28T22:48:55.264Z,16.30
2018-08-28T22:51:23.731Z,16.20
2018-08-28T22:53:52.293Z,16.10
2018-08-28T22:56:20.767Z,16.10
2018-08-28T22:58:49.306Z,16.10
2018-08-28T23:01:17.746Z,16.00
2018-08-28T23:03:46.207Z,16.00
2018-08-28T23:06:14.680Z,16.00
2018-08-28T23:08:43.157Z,16.00
2018-08-28T23:11:11.603Z,16.00
2018-08-28T23:13:40.121Z,16.00
2018-08-28T23:16:08.575Z,15.90
2018-08-28T23:18:37.010Z,15.90
2018-08-28T23:21:05.542Z,15.90
2018-08-28T23:23:33.993Z,15.80
2018-08-28T23:26:02.423Z,15.80
2018-08-28T23:28:31.211Z,15.80
2018-08-28T23:30:59.923Z,15.80
2018-08-28T23:33:28.599Z,15.80
2018-08-28T23:35:57.103Z,15.90
2018-08-28T23:38:25.536Z,15.80
2018-08-28T23:40:54.364Z,15.80
2018-08-28T23:43:22.863Z,15.80
2018-08-28T23:45:51.365Z,15.80
2018-08-28T23:48:19.846Z,15.70
2018-08-28T23:50:48.274Z,15.70
2018-08-28T23:53:16.761Z,15.60
2018-08-28T23:55:45.182Z,15.60
2018-08-28T23:58:13.720Z,15.50
